Time;durP1;ratioP1;P1;durP2;ratioP2;P2;SDS_P1;SDS_P2;PMS_P1;PMS_P2;Temp;Humidity;BMP_temperature;BMP_pressure;BME280_temperature;BME280_humidity;BME280_pressure;Samples;Min_cycle;Max_cycle;Signal;HPM_P1;HPM_P2
2023/01/22 00:01:15;;;;;;;19.23;11.35;;;0.60;99.90;;;;;;5032307;28;20047;-62
2023/01/22 00:03:41;;;;;;;17.48;10.32;;;0.60;99.90;;;;;;5026626;28;20407;-62
2023/01/22 00:06:08;;;;;;;21.25;11.18;;;0.60;99.90;;;;;;5034552;28;20084;-61
2023/01/22 00:08:34;;;;;;;21.00;11.63;;;0.60;99.90;;;;;;5031985;28;20043;-62
2023/01/22 00:11:00;;;;;;;20.13;10.40;;;0.60;99.90;;;;;;5040855;28;20041;-62
2023/01/22 00:13:26;;;;;;;19.48;10.55;;;0.60;99.90;;;;;;5030129;28;20061;-62
2023/01/22 00:15:52;;;;;;;18.85;10.52;;;0.60;99.90;;;;;;5038686;28;20045;-62
2023/01/22 00:18:18;;;;;;;18.95;10.18;;;0.60;99.90;;;;;;5031147;28;20391;-62
2023/01/22 00:20:49;;;;;;;16.67;9.90;;;0.60;99.90;;;;;;5033129;28;20144;-62
2023/01/22 00:23:15;;;;;;;18.35;9.77;;;0.60;99.90;;;;;;5036630;28;20044;-62
2023/01/22 00:25:40;;;;;;;20.27;10.63;;;0.60;99.90;;;;;;5038549;28;20040;-62
2023/01/22 00:28:06;;;;;;;18.05;10.02;;;0.60;99.90;;;;;;5032231;28;20063;-61
2023/01/22 00:30:32;;;;;;;16.77;9.77;;;0.60;99.90;;;;;;5013398;28;20038;-62
2023/01/22 00:32:57;;;;;;;18.67;10.32;;;0.50;99.90;;;;;;5040304;28;20491;-61
2023/01/22 00:35:23;;;;;;;17.65;9.90;;;0.50;99.90;;;;;;5029306;28;20124;-61
2023/01/22 00:37:49;;;;;;;17.25;9.52;;;0.50;99.90;;;;;;5042135;28;20484;-62
2023/01/22 00:40:16;;;;;;;17.50;9.38;;;0.50;99.90;;;;;;5036348;28;20511;-61
2023/01/22 00:42:41;;;;;;;18.50;10.23;;;0.50;99.90;;;;;;5036645;28;20037;-61
2023/01/22 00:45:08;;;;;;;17.23;9.50;;;0.50;99.90;;;;;;5039192;28;20056;-62
2023/01/22 00:47:34;;;;;;;17.92;9.90;;;0.50;99.90;;;;;;5042439;28;20045;-61
2023/01/22 00:50:01;;;;;;;17.88;9.68;;;0.50;99.90;;;;;;5033919;28;20049;-61
2023/01/22 00:52:26;;;;;;;16.17;9.07;;;0.50;99.90;;;;;;5031370;28;20044;-61
2023/01/22 00:54:52;;;;;;;18.38;9.95;;;0.50;99.90;;;;;;5032364;28;20041;-61
2023/01/22 00:57:20;;;;;;;17.48;9.30;;;0.50;99.90;;;;;;5038200;28;20053;-61
2023/01/22 00:59:47;;;;;;;16.65;9.07;;;0.50;99.90;;;;;;5031201;28;20030;-61
2023/01/22 01:02:13;;;;;;;17.48;9.65;;;0.50;99.90;;;;;;5031278;28;20037;-61
2023/01/22 01:04:38;;;;;;;17.58;10.02;;;0.50;99.90;;;;;;5030532;28;20040;-61
2023/01/22 01:07:04;;;;;;;17.55;8.88;;;0.50;99.90;;;;;;5044285;28;20044;-61
2023/01/22 01:09:30;;;;;;;17.50;9.55;;;0.50;99.90;;;;;;5033773;28;20038;-61
2023/01/22 01:11:55;;;;;;;17.10;9.38;;;0.50;99.90;;;;;;5038604;28;20115;-61
2023/01/22 01:14:21;;;;;;;19.10;9.35;;;0.50;99.90;;;;;;5084373;22;20060;-76
2023/01/22 01:16:49;;;;;;;18.58;10.07;;;0.50;99.90;;;;;;5048135;28;20075;-76
2023/01/22 01:19:16;;;;;;;16.65;9.38;;;0.50;99.90;;;;;;5047960;28;20043;-76
2023/01/22 01:21:42;;;;;;;20.98;10.13;;;0.50;99.90;;;;;;5056370;28;20045;-76
2023/01/22 01:24:09;;;;;;;20.40;9.43;;;0.50;99.90;;;;;;5055662;28;20112;-76
2023/01/22 01:26:35;;;;;;;18.90;10.77;;;0.50;99.90;;;;;;5048826;28;20041;-76
2023/01/22 01:29:08;;;;;;;17.45;9.77;;;0.50;99.90;;;;;;5050231;28;20044;-76
2023/01/22 01:31:34;;;;;;;19.80;10.02;;;0.50;99.90;;;;;;5053853;28;20049;-76
2023/01/22 01:34:01;;;;;;;18.98;10.02;;;0.50;99.90;;;;;;5061105;28;20095;-76
2023/01/22 01:36:26;;;;;;;18.83;9.75;;;0.50;99.90;;;;;;5048937;28;20043;-76
2023/01/22 01:38:53;;;;;;;20.40;9.38;;;0.50;99.90;;;;;;5042075;28;20071;-76
2023/01/22 01:41:21;;;;;;;21.60;9.88;;;0.50;99.90;;;;;;5054417;28;20492;-76
2023/01/22 01:44:20;;;;;;;20.98;10.15;;;1.00;99.90;;;;;;5045849;28;20036;-76
2023/01/22 01:47:00;;;;;;;20.35;10.13;;;0.50;99.90;;;;;;5043935;28;20046;-76
2023/01/22 01:49:31;;;;;;;20.92;9.75;;;0.50;99.90;;;;;;5061717;28;20045;-76
2023/01/22 01:52:01;;;;;;;19.60;10.15;;;0.50;99.90;;;;;;5058142;28;20054;-74
2023/01/22 01:54:29;;;;;;;18.52;9.68;;;0.50;99.90;;;;;;5032617;28;20051;-76
2023/01/22 01:57:10;;;;;;;18.75;10.07;;;0.50;99.90;;;;;;5049333;28;20067;-76
2023/01/22 01:59:37;;;;;;;22.70;11.00;;;0.50;99.90;;;;;;5050759;28;20087;-75
2023/01/22 02:02:03;;;;;;;20.85;10.40;;;0.50;99.90;;;;;;5032011;28;20044;-76
2023/01/22 02:04:29;;;;;;;18.85;10.70;;;0.50;99.90;;;;;;5043267;28;20037;-76
2023/01/22 02:06:55;;;;;;;21.67;10.65;;;0.50;99.90;;;;;;5053182;28;20396;-76
2023/01/22 02:09:20;;;;;;;18.73;10.98;;;0.40;99.90;;;;;;5048005;28;20427;-76
2023/01/22 02:11:48;;;;;;;20.63;11.43;;;0.50;99.90;;;;;;5047749;28;20404;-76
2023/01/22 02:14:18;;;;;;;22.55;10.45;;;0.40;99.90;;;;;;5049618;28;20466;-76
2023/01/22 02:16:44;;;;;;;26.00;11.35;;;0.40;99.90;;;;;;5044235;28;20033;-76
2023/01/22 02:19:10;;;;;;;22.60;11.57;;;0.40;99.90;;;;;;5052730;28;20450;-76
2023/01/22 02:21:43;;;;;;;21.38;11.55;;;0.40;99.90;;;;;;5047663;28;20496;-73
2023/01/22 02:24:16;;;;;;;23.10;11.20;;;0.40;99.90;;;;;;5048518;28;20540;-76
2023/01/22 02:26:43;;;;;;;23.85;12.52;;;0.40;99.90;;;;;;5051731;28;20111;-76
2023/01/22 02:29:12;;;;;;;21.75;11.95;;;0.40;99.90;;;;;;5060605;28;20511;-76
2023/01/22 02:31:39;;;;;;;22.30;11.13;;;0.40;99.90;;;;;;5049241;28;20041;-76
2023/01/22 02:34:07;;;;;;;25.48;11.55;;;0.30;99.90;;;;;;5050278;28;20077;-75
2023/01/22 02:36:34;;;;;;;19.92;10.68;;;0.30;99.90;;;;;;5053592;28;20033;-76
2023/01/22 02:39:00;;;;;;;20.73;10.90;;;0.30;99.90;;;;;;5049247;28;20509;-76
2023/01/22 02:41:26;;;;;;;22.13;11.05;;;0.40;99.90;;;;;;5052913;28;20166;-76
2023/01/22 02:43:52;;;;;;;19.70;10.77;;;0.40;99.90;;;;;;5036737;28;20038;-76
2023/01/22 02:46:18;;;;;;;21.33;10.30;;;0.40;99.90;;;;;;5036729;28;20044;-76
2023/01/22 02:48:43;;;;;;;22.13;11.45;;;0.40;99.90;;;;;;5054856;28;20607;-76
2023/01/22 02:51:09;;;;;;;20.48;11.32;;;0.40;99.90;;;;;;5047437;28;20524;-75
2023/01/22 02:53:35;;;;;;;20.35;10.13;;;0.50;99.90;;;;;;5045138;28;20039;-73
2023/01/22 02:56:05;;;;;;;21.35;10.85;;;0.50;99.90;;;;;;5062946;28;20064;-76
2023/01/22 02:58:31;;;;;;;19.98;10.52;;;0.50;99.90;;;;;;5051884;28;20087;-74
2023/01/22 03:00:56;;;;;;;22.02;10.48;;;0.50;99.90;;;;;;5059664;28;20057;-76
2023/01/22 03:03:22;;;;;;;22.20;10.38;;;0.60;99.90;;;;;;5051800;28;20033;-76
2023/01/22 03:05:50;;;;;;;23.23;9.82;;;0.60;99.90;;;;;;5052286;28;20041;-75
2023/01/22 03:08:16;;;;;;;18.48;10.15;;;0.60;99.90;;;;;;5068738;28;20446;-75
2023/01/22 03:10:42;;;;;;;17.23;8.80;;;0.70;99.90;;;;;;5056013;28;20033;-75
2023/01/22 03:21:23;;;;;;;19.00;9.98;;;0.70;99.90;;;;;;5067216;28;20071;-75
2023/01/22 03:23:53;;;;;;;14.73;8.77;;;0.80;99.90;;;;;;5054002;28;20477;-75
2023/01/22 03:26:21;;;;;;;17.52;9.00;;;0.80;99.90;;;;;;5060582;28;20033;-75
2023/01/22 03:28:47;;;;;;;16.10;9.30;;;0.80;99.90;;;;;;5066652;28;20492;-75
2023/01/22 03:31:13;;;;;;;16.27;9.20;;;0.80;99.90;;;;;;5050927;28;20097;-76
2023/01/22 03:33:40;;;;;;;18.77;9.32;;;0.80;99.90;;;;;;5059313;28;20072;-75
2023/01/22 03:36:09;;;;;;;15.30;8.23;;;0.80;99.90;;;;;;5064678;28;20044;-75
2023/01/22 03:38:34;;;;;;;15.82;8.88;;;0.90;99.90;;;;;;5055994;28;20400;-75
2023/01/22 03:41:10;;;;;;;16.48;9.38;;;0.90;99.90;;;;;;5051742;28;20055;-76
2023/01/22 03:43:36;;;;;;;17.88;8.77;;;0.90;99.90;;;;;;5055712;28;20037;-75
2023/01/22 03:46:06;;;;;;;16.73;8.85;;;0.90;99.90;;;;;;5052517;28;20409;-75
2023/01/22 03:48:32;;;;;;;16.00;8.90;;;0.90;99.90;;;;;;5053107;28;20061;-75
2023/01/22 03:51:06;;;;;;;17.38;8.40;;;1.00;99.90;;;;;;5062223;28;20138;-75
2023/01/22 03:53:33;;;;;;;15.77;8.90;;;1.00;99.90;;;;;;5030551;28;20066;-75
2023/01/22 03:56:00;;;;;;;16.05;8.73;;;1.00;99.90;;;;;;5059750;28;20036;-75
2023/01/22 03:58:28;;;;;;;15.73;8.40;;;1.00;99.90;;;;;;5050716;28;20052;-75
2023/01/22 04:00:56;;;;;;;16.73;8.90;;;1.00;99.90;;;;;;5051171;28;20562;-75
2023/01/22 04:03:23;;;;;;;17.20;9.00;;;1.00;99.90;;;;;;5056700;28;20048;-75
2023/01/22 04:05:49;;;;;;;15.43;8.10;;;1.10;99.90;;;;;;5049515;28;20051;-76
2023/01/22 04:08:14;;;;;;;13.20;7.68;;;1.00;99.90;;;;;;5047031;28;20123;-75
2023/01/22 04:10:41;;;;;;;13.75;8.15;;;1.10;99.90;;;;;;5063356;28;20047;-75
2023/01/22 04:13:07;;;;;;;14.15;7.70;;;1.10;99.90;;;;;;5049035;28;20447;-75
2023/01/22 04:15:33;;;;;;;13.50;7.20;;;1.10;99.90;;;;;;5053531;28;20057;-76
2023/01/22 04:17:58;;;;;;;14.93;7.95;;;1.10;99.90;;;;;;5051284;28;20059;-76
2023/01/22 04:20:24;;;;;;;12.82;7.43;;;1.10;99.90;;;;;;5061699;28;20043;-75
2023/01/22 04:22:50;;;;;;;16.38;8.40;;;1.10;99.90;;;;;;5061434;28;20535;-75
2023/01/22 04:25:16;;;;;;;12.65;7.72;;;1.10;99.90;;;;;;5050660;28;20127;-76
2023/01/22 04:27:43;;;;;;;13.95;6.88;;;1.10;99.90;;;;;;5051072;28;20127;-75
2023/01/22 04:30:10;;;;;;;13.48;7.53;;;1.10;99.90;;;;;;5051290;28;20190;-76
2023/01/22 04:32:35;;;;;;;12.35;7.90;;;1.10;99.90;;;;;;5059643;28;20281;-76
2023/01/22 04:35:02;;;;;;;13.57;7.43;;;1.10;99.90;;;;;;5053885;28;20119;-76
2023/01/22 04:37:28;;;;;;;13.43;7.57;;;1.10;99.90;;;;;;5060817;28;20085;-76
2023/01/22 04:39:54;;;;;;;17.55;7.72;;;1.10;99.90;;;;;;5052754;28;20041;-76
2023/01/22 04:42:20;;;;;;;12.55;7.15;;;1.20;99.90;;;;;;5051150;28;20392;-74
2023/01/22 04:44:45;;;;;;;13.35;6.90;;;1.20;99.90;;;;;;5051165;28;20549;-75
2023/01/22 04:47:11;;;;;;;16.35;7.68;;;1.50;99.90;;;;;;5051201;28;20066;-75
2023/01/22 04:49:36;;;;;;;12.75;7.20;;;1.20;99.90;;;;;;5066305;28;20496;-76
2023/01/22 04:52:02;;;;;;;14.15;7.13;;;1.20;99.90;;;;;;5053245;28;20041;-75
2023/01/22 04:54:27;;;;;;;11.57;7.30;;;1.50;99.90;;;;;;5053973;28;20036;-75
2023/01/22 04:56:53;;;;;;;13.57;7.65;;;1.20;99.90;;;;;;5049695;28;20041;-76
2023/01/22 04:59:19;;;;;;;15.38;7.13;;;1.20;99.90;;;;;;5049299;28;20029;-75
2023/01/22 05:01:44;;;;;;;10.32;6.72;;;1.20;99.90;;;;;;5046931;28;20044;-74
2023/01/22 05:04:10;;;;;;;11.90;6.57;;;1.20;99.90;;;;;;5058177;28;20044;-76
2023/01/22 05:06:36;;;;;;;11.68;6.47;;;1.20;99.90;;;;;;5048693;28;20033;-76
2023/01/22 05:09:01;;;;;;;10.75;6.13;;;1.20;99.90;;;;;;5048694;28;20442;-76
2023/01/22 05:11:27;;;;;;;11.32;6.50;;;1.20;99.90;;;;;;5048877;28;20041;-75
2023/01/22 05:13:53;;;;;;;12.18;6.45;;;1.20;99.90;;;;;;5049919;28;20036;-74
2023/01/22 05:16:19;;;;;;;11.52;6.13;;;1.20;99.90;;;;;;5050103;28;20098;-76
2023/01/22 05:18:44;;;;;;;13.23;6.18;;;1.20;99.90;;;;;;5056302;28;20032;-76
2023/01/22 05:21:10;;;;;;;10.38;6.07;;;1.20;99.90;;;;;;5056217;28;20489;-75
2023/01/22 05:23:36;;;;;;;11.32;6.20;;;1.20;99.90;;;;;;5050319;28;20124;-75
2023/01/22 05:26:01;;;;;;;10.00;5.90;;;1.20;99.90;;;;;;5062357;28;20033;-75
2023/01/22 05:28:27;;;;;;;10.70;6.40;;;1.20;99.90;;;;;;5047758;28;20045;-75
2023/01/22 05:30:52;;;;;;;11.15;6.43;;;1.30;99.90;;;;;;5058698;28;20227;-75
2023/01/22 05:33:18;;;;;;;10.73;6.22;;;1.20;99.90;;;;;;5058769;28;20029;-75
2023/01/22 05:35:44;;;;;;;10.15;6.20;;;1.30;99.90;;;;;;5049943;28;20550;-75
2023/01/22 05:38:09;;;;;;;11.00;6.18;;;1.70;99.90;;;;;;5044121;28;20033;-74
2023/01/22 05:40:35;;;;;;;12.43;6.20;;;1.30;99.90;;;;;;5047770;28;20041;-75
2023/01/22 05:43:03;;;;;;;9.57;5.70;;;1.30;99.90;;;;;;5054329;28;20496;-75
2023/01/22 05:45:29;;;;;;;12.50;5.95;;;1.50;99.90;;;;;;5066998;28;20044;-76
2023/01/22 05:47:55;;;;;;;13.68;6.55;;;1.30;99.90;;;;;;5049044;28;20045;-75
2023/01/22 05:50:21;;;;;;;10.95;6.80;;;1.30;99.90;;;;;;5049675;28;20041;-75
2023/01/22 05:52:46;;;;;;;9.70;5.80;;;1.30;99.90;;;;;;5048023;28;20044;-75
2023/01/22 05:55:12;;;;;;;11.52;6.40;;;1.30;99.90;;;;;;5054222;28;20037;-76
2023/01/22 05:57:38;;;;;;;11.23;6.43;;;1.70;99.90;;;;;;5053592;28;20128;-75
2023/01/22 06:00:04;;;;;;;12.25;7.07;;;1.40;99.90;;;;;;5049340;28;20505;-75
2023/01/22 06:02:31;;;;;;;12.27;6.35;;;1.30;99.90;;;;;;5058847;28;20377;-75
2023/01/22 06:04:56;;;;;;;13.38;6.80;;;1.30;99.90;;;;;;5047876;28;20049;-76
2023/01/22 06:07:22;;;;;;;10.40;6.50;;;1.30;99.90;;;;;;5045745;28;20032;-76
2023/01/22 06:09:47;;;;;;;11.77;6.75;;;1.30;99.90;;;;;;5050852;28;20032;-76
2023/01/22 06:12:14;;;;;;;9.80;6.53;;;1.30;99.90;;;;;;5058195;28;20033;-76
2023/01/22 06:14:40;;;;;;;12.60;6.75;;;1.30;99.90;;;;;;5060378;28;20048;-76
2023/01/22 06:17:06;;;;;;;11.25;6.68;;;1.30;99.90;;;;;;5059977;28;20048;-76
2023/01/22 06:19:31;;;;;;;10.38;6.63;;;1.30;99.90;;;;;;5059784;28;20045;-75
2023/01/22 06:21:57;;;;;;;12.05;6.53;;;1.30;99.90;;;;;;5046854;28;20044;-75
2023/01/22 06:24:23;;;;;;;13.40;6.85;;;1.30;99.90;;;;;;5049360;28;20044;-75
2023/01/22 06:26:48;;;;;;;10.30;6.25;;;1.30;99.90;;;;;;5027362;28;20045;-74
2023/01/22 06:29:14;;;;;;;10.55;6.72;;;1.30;99.90;;;;;;5065219;28;20071;-77
2023/01/22 06:31:39;;;;;;;10.27;6.68;;;1.30;99.90;;;;;;5046870;28;20128;-76
2023/01/22 06:34:05;;;;;;;11.60;6.55;;;1.20;99.90;;;;;;5045067;28;20422;-75
2023/01/22 06:36:31;;;;;;;11.77;6.63;;;1.30;99.90;;;;;;5045797;28;20041;-76
2023/01/22 06:38:56;;;;;;;11.38;6.32;;;1.30;99.90;;;;;;5054998;28;20076;-76
2023/01/22 06:41:22;;;;;;;11.05;6.45;;;1.30;99.90;;;;;;5062860;28;20056;-76
2023/01/22 06:43:47;;;;;;;8.52;5.85;;;1.20;99.90;;;;;;5051021;28;20036;-75
2023/01/22 06:46:13;;;;;;;11.25;6.45;;;1.30;99.90;;;;;;5054528;28;20044;-77
2023/01/22 06:48:42;;;;;;;11.32;6.22;;;1.30;99.90;;;;;;5049079;28;20041;-76
2023/01/22 06:51:08;;;;;;;11.27;6.28;;;1.20;99.90;;;;;;5032365;28;20041;-75
2023/01/22 06:53:34;;;;;;;11.38;6.40;;;1.30;99.90;;;;;;5057418;28;20040;-76
2023/01/22 06:56:00;;;;;;;10.82;6.03;;;1.20;99.90;;;;;;5048973;28;20045;-76
2023/01/22 06:58:26;;;;;;;11.05;6.47;;;1.30;99.90;;;;;;5049141;28;20033;-76
2023/01/22 07:00:52;;;;;;;11.15;6.22;;;1.30;99.90;;;;;;5044987;28;20090;-75
2023/01/22 07:03:17;;;;;;;11.77;6.50;;;1.30;99.90;;;;;;5064482;28;20040;-74
2023/01/22 07:05:43;;;;;;;10.20;5.97;;;1.30;99.90;;;;;;5047171;28;20493;-76
2023/01/22 07:08:13;;;;;;;10.80;6.32;;;1.30;99.90;;;;;;5025588;28;20044;-76
2023/01/22 07:10:39;;;;;;;10.65;6.10;;;1.30;99.90;;;;;;5046259;28;20074;-76
2023/01/22 07:13:06;;;;;;;12.07;6.05;;;1.40;99.90;;;;;;5105438;22;20019;-75
2023/01/22 07:15:32;;;;;;;11.93;6.85;;;1.30;99.90;;;;;;5061970;28;20067;-76
2023/01/22 07:17:58;;;;;;;10.57;6.03;;;1.30;99.90;;;;;;5042572;28;20041;-76
2023/01/22 07:20:24;;;;;;;10.32;6.15;;;1.30;99.90;;;;;;5034548;28;20036;-76
2023/01/22 07:22:50;;;;;;;9.68;6.03;;;1.30;99.90;;;;;;5056953;28;20068;-77
2023/01/22 07:25:17;;;;;;;10.60;6.03;;;1.30;99.90;;;;;;5058958;28;20077;-77
2023/01/22 07:27:43;;;;;;;12.15;6.47;;;1.30;99.90;;;;;;5050486;28;20041;-77
2023/01/22 07:30:09;;;;;;;9.20;5.93;;;1.30;99.90;;;;;;5051528;28;20407;-77
2023/01/22 07:32:35;;;;;;;11.55;5.72;;;1.30;99.90;;;;;;5058642;28;20040;-77
2023/01/22 07:35:01;;;;;;;9.93;6.20;;;1.30;99.90;;;;;;5070015;28;20043;-76
2023/01/22 07:37:26;;;;;;;11.57;6.32;;;1.90;99.90;;;;;;5050778;28;20076;-77
2023/01/22 07:39:52;;;;;;;11.55;5.93;;;1.30;99.90;;;;;;5032462;28;20043;-77
2023/01/22 07:42:18;;;;;;;15.98;5.90;;;1.30;99.90;;;;;;5052063;28;20044;-77
2023/01/22 07:44:43;;;;;;;11.02;6.07;;;1.20;99.90;;;;;;5051633;28;20026;-77
2023/01/22 07:47:09;;;;;;;10.90;6.18;;;1.30;99.90;;;;;;5057797;28;20040;-76
2023/01/22 07:49:34;;;;;;;11.15;5.97;;;1.30;99.90;;;;;;5053317;28;20036;-77
2023/01/22 07:52:00;;;;;;;11.23;6.28;;;1.20;99.90;;;;;;5058918;28;20073;-77
2023/01/22 07:54:26;;;;;;;10.02;5.85;;;1.20;99.90;;;;;;5050889;28;20505;-76
2023/01/22 07:56:51;;;;;;;12.48;6.28;;;1.20;99.90;;;;;;5051742;28;20036;-77
2023/01/22 07:59:17;;;;;;;11.48;6.50;;;1.30;99.90;;;;;;5050988;28;20033;-77
2023/01/22 08:01:43;;;;;;;10.27;6.38;;;1.20;99.90;;;;;;5035860;28;20401;-76
2023/01/22 08:04:08;;;;;;;11.52;6.72;;;1.20;99.90;;;;;;5053828;28;20033;-77
2023/01/22 08:06:34;;;;;;;11.82;6.30;;;1.30;99.90;;;;;;5048584;28;20606;-76
2023/01/22 08:08:59;;;;;;;13.13;6.18;;;1.20;99.90;;;;;;5048312;28;20052;-77
2023/01/22 08:11:26;;;;;;;12.55;6.18;;;1.30;99.90;;;;;;5053722;28;20033;-77
2023/01/22 08:13:53;;;;;;;11.77;6.60;;;1.20;99.90;;;;;;5049062;28;20076;-75
2023/01/22 08:16:19;;;;;;;12.10;7.20;;;1.30;99.90;;;;;;5053056;28;20045;-77
2023/01/22 08:18:45;;;;;;;18.65;9.38;;;1.30;99.90;;;;;;5053533;28;20404;-77
2023/01/22 08:21:11;;;;;;;34.47;15.75;;;1.30;99.90;;;;;;5036874;28;20041;-77
2023/01/22 08:23:36;;;;;;;26.17;15.18;;;1.30;99.90;;;;;;5063622;28;20033;-78
2023/01/22 08:26:03;;;;;;;16.77;8.45;;;1.30;99.90;;;;;;5043917;28;20041;-78
2023/01/22 08:28:29;;;;;;;14.00;8.77;;;1.30;99.90;;;;;;5046282;28;20416;-78
2023/01/22 08:31:02;;;;;;;12.32;7.82;;;1.30;99.90;;;;;;5043965;28;20041;-78
2023/01/22 08:33:30;;;;;;;13.07;7.45;;;1.40;99.90;;;;;;5039894;28;20034;-76
2023/01/22 08:35:55;;;;;;;18.17;11.32;;;1.40;99.90;;;;;;5020087;28;20029;-76
2023/01/22 08:38:21;;;;;;;13.00;8.10;;;1.40;99.90;;;;;;5042114;28;20059;-77
2023/01/22 08:40:51;;;;;;;12.02;7.32;;;1.40;99.90;;;;;;5044585;28;20029;-78
2023/01/22 08:43:17;;;;;;;15.52;8.77;;;1.40;99.90;;;;;;5042356;28;20037;-78
2023/01/22 08:45:46;;;;;;;11.85;7.55;;;1.40;99.90;;;;;;5041910;28;20052;-77
2023/01/22 08:48:11;;;;;;;12.75;7.75;;;1.40;99.90;;;;;;5041102;28;20119;-75
2023/01/22 08:50:37;;;;;;;13.75;9.32;;;1.40;99.90;;;;;;5044764;28;20141;-74
2023/01/22 08:53:03;;;;;;;13.75;7.72;;;1.40;99.90;;;;;;5040766;28;20041;-75
2023/01/22 08:55:28;;;;;;;12.27;7.68;;;1.40;99.90;;;;;;5044181;28;20408;-75
2023/01/22 08:57:55;;;;;;;12.18;7.55;;;1.40;99.90;;;;;;5039427;28;20485;-75
2023/01/22 09:00:21;;;;;;;12.13;7.10;;;1.40;99.90;;;;;;5033968;28;20044;-75
2023/01/22 09:02:47;;;;;;;15.65;7.53;;;1.40;99.90;;;;;;5040614;28;20033;-75
2023/01/22 09:05:13;;;;;;;13.15;7.15;;;1.40;99.90;;;;;;5041500;28;20396;-76
2023/01/22 09:07:39;;;;;;;13.02;7.38;;;1.40;99.90;;;;;;5040015;28;21221;-74
2023/01/22 09:10:06;;;;;;;18.38;11.27;;;1.40;99.90;;;;;;5054230;28;20426;-76
2023/01/22 09:12:33;;;;;;;34.13;19.08;;;1.40;99.90;;;;;;5048781;28;20037;-76
2023/01/22 09:14:59;;;;;;;26.92;14.38;;;1.50;99.90;;;;;;5041145;28;20589;-76
2023/01/22 09:17:24;;;;;;;44.78;23.17;;;1.40;99.90;;;;;;5054978;28;20131;-75
2023/01/22 09:19:50;;;;;;;24.15;13.77;;;1.40;99.90;;;;;;5048543;28;20040;-77
2023/01/22 09:22:15;;;;;;;30.45;16.67;;;1.50;99.90;;;;;;5049279;28;20163;-75
2023/01/22 09:24:41;;;;;;;17.52;9.90;;;1.50;99.90;;;;;;5049920;28;20047;-76
2023/01/22 09:27:08;;;;;;;14.60;9.15;;;1.50;99.90;;;;;;5061312;28;21409;-76
2023/01/22 09:29:33;;;;;;;12.45;8.20;;;1.50;99.90;;;;;;5050209;28;20455;-75
2023/01/22 09:31:59;;;;;;;18.08;9.43;;;1.50;99.90;;;;;;5055816;28;20420;-76
2023/01/22 09:34:25;;;;;;;12.10;7.95;;;1.50;99.90;;;;;;5050180;28;20040;-76
2023/01/22 09:36:50;;;;;;;10.85;7.50;;;1.50;99.90;;;;;;5045224;28;20102;-75
2023/01/22 09:39:20;;;;;;;15.85;9.02;;;1.50;99.90;;;;;;5041502;28;20386;-75
2023/01/22 09:41:51;;;;;;;12.05;7.82;;;2.10;99.90;;;;;;5029958;28;20037;-76
2023/01/22 09:44:37;;;;;;;13.85;7.68;;;1.60;99.90;;;;;;5048323;28;20408;-76
2023/01/22 09:47:17;;;;;;;12.48;7.43;;;1.60;99.90;;;;;;5046000;28;20037;-75
2023/01/22 09:49:59;;;;;;;12.38;7.20;;;1.60;99.90;;;;;;5029929;28;20326;-74
2023/01/22 09:52:28;;;;;;;10.00;6.97;;;1.70;99.90;;;;;;5046544;28;20049;-76
2023/01/22 09:54:55;;;;;;;11.90;6.50;;;1.70;99.90;;;;;;5041640;28;20037;-77
2023/01/22 09:57:20;;;;;;;13.32;7.22;;;1.70;99.90;;;;;;5044694;28;20074;-76
2023/01/22 09:59:49;;;;;;;12.00;7.00;;;1.70;99.90;;;;;;5037220;28;20045;-75
2023/01/22 10:02:37;;;;;;;17.30;11.80;;;2.50;99.90;;;;;;5045144;28;20048;-76
2023/01/22 10:05:22;;;;;;;12.82;7.90;;;1.80;99.90;;;;;;5044585;28;20038;-77
2023/01/22 10:07:57;;;;;;;11.73;7.60;;;1.80;99.90;;;;;;5040865;28;20044;-76
2023/01/22 10:10:25;;;;;;;11.15;7.30;;;1.80;99.90;;;;;;5045313;28;20081;-77
2023/01/22 10:13:10;;;;;;;12.63;7.00;;;1.80;99.90;;;;;;5040206;28;20499;-76
2023/01/22 10:15:36;;;;;;;14.68;7.50;;;1.80;99.90;;;;;;5045672;28;20112;-75
2023/01/22 10:18:13;;;;;;;13.38;8.50;;;1.80;99.90;;;;;;5035460;28;20041;-76
2023/01/22 10:20:39;;;;;;;12.05;7.63;;;1.80;99.90;;;;;;5054429;28;20083;-76
2023/01/22 10:23:15;;;;;;;14.05;8.57;;;1.90;99.90;;;;;;5051422;28;20634;-77
2023/01/22 10:25:41;;;;;;;10.40;7.57;;;2.30;99.90;;;;;;5046759;28;20516;-76
2023/01/22 10:28:08;;;;;;;16.70;7.05;;;1.90;99.90;;;;;;5040940;28;20041;-76
2023/01/22 10:30:43;;;;;;;10.68;6.97;;;2.10;99.90;;;;;;5035601;28;20037;-76
2023/01/22 10:33:16;;;;;;;15.27;7.55;;;1.90;99.90;;;;;;5034995;28;20076;-76
2023/01/22 10:35:55;;;;;;;11.32;7.10;;;1.90;99.90;;;;;;5041180;28;20112;-78
2023/01/22 10:38:26;;;;;;;12.68;7.97;;;1.90;99.90;;;;;;5028551;28;20029;-76
2023/01/22 10:40:55;;;;;;;11.63;7.00;;;2.00;99.90;;;;;;5045958;28;21438;-76
2023/01/22 10:43:21;;;;;;;14.45;7.47;;;2.00;99.90;;;;;;5048576;28;20051;-76
2023/01/22 10:45:56;;;;;;;13.43;7.38;;;2.10;99.90;;;;;;5056040;28;20036;-76
2023/01/22 10:48:22;;;;;;;11.05;7.00;;;2.10;99.90;;;;;;5039731;28;20037;-77
2023/01/22 10:51:06;;;;;;;10.95;7.60;;;2.10;99.90;;;;;;5033011;28;20048;-75
2023/01/22 10:53:36;;;;;;;11.18;7.22;;;2.10;99.90;;;;;;5046029;28;20114;-77
2023/01/22 10:56:06;;;;;;;20.90;9.18;;;2.20;99.90;;;;;;5047773;28;20311;-77
2023/01/22 10:58:35;;;;;;;14.50;8.48;;;2.30;99.90;;;;;;5043890;28;20038;-77
2023/01/22 11:01:20;;;;;;;14.93;8.10;;;2.40;99.90;;;;;;5053937;28;20052;-77
2023/01/22 11:03:46;;;;;;;17.35;7.55;;;2.50;99.90;;;;;;5044790;28;20116;-77
2023/01/22 11:06:21;;;;;;;12.80;7.57;;;2.60;99.90;;;;;;5049428;28;20504;-77
2023/01/22 11:09:16;;;;;;;10.88;7.20;;;2.80;99.90;;;;;;5045783;28;20434;-77
2023/01/22 11:11:47;;;;;;;13.77;8.40;;;2.50;99.90;;;;;;5055313;28;20049;-77
2023/01/22 11:14:21;;;;;;;13.38;7.22;;;2.50;99.90;;;;;;5054427;28;20583;-77
2023/01/22 11:16:50;;;;;;;13.02;7.95;;;2.50;99.90;;;;;;5063720;28;20043;-77
2023/01/22 11:19:19;;;;;;;13.00;8.00;;;2.40;99.90;;;;;;5048455;28;20365;-77
2023/01/22 11:21:49;;;;;;;11.77;7.65;;;2.40;99.90;;;;;;5041055;28;20040;-77
2023/01/22 11:24:22;;;;;;;12.98;8.75;;;2.40;99.90;;;;;;5052882;28;20040;-78
2023/01/22 11:27:11;;;;;;;12.43;7.53;;;2.40;99.90;;;;;;5049269;28;20138;-77
2023/01/22 11:30:03;;;;;;;13.23;7.88;;;2.40;99.90;;;;;;5056945;28;20044;-77
2023/01/22 11:32:41;;;;;;;14.38;8.00;;;2.10;99.90;;;;;;5059489;28;20048;-77
2023/01/22 11:35:22;;;;;;;12.30;8.48;;;2.40;99.90;;;;;;5061922;28;20033;-77
2023/01/22 11:38:09;;;;;;;15.90;8.65;;;2.40;99.90;;;;;;5053444;28;20033;-77
2023/01/22 11:40:55;;;;;;;17.65;10.50;;;2.40;99.90;;;;;;5052684;28;20076;-78
2023/01/22 11:43:26;;;;;;;17.55;10.40;;;2.90;99.90;;;;;;5025602;28;20531;-78
2023/01/22 11:45:58;;;;;;;15.02;8.90;;;2.60;99.90;;;;;;5051655;28;20040;-77
2023/01/22 11:48:38;;;;;;;14.43;9.02;;;2.40;99.90;;;;;;5064323;28;20044;-76
2023/01/22 11:51:24;;;;;;;17.48;9.60;;;2.40;99.90;;;;;;5054562;28;20060;-77
2023/01/22 11:54:05;;;;;;;18.33;11.25;;;2.50;99.90;;;;;;5042400;28;20033;-76
2023/01/22 11:57:15;;;;;;;14.55;9.30;;;2.50;99.90;;;;;;5044320;28;20094;-76
2023/01/22 12:00:15;;;;;;;12.60;8.60;;;2.50;99.90;;;;;;5033017;28;20041;-76
2023/01/22 12:02:50;;;;;;;13.25;8.23;;;2.50;99.90;;;;;;5053149;28;20051;-76
2023/01/22 12:05:24;;;;;;;14.50;8.02;;;2.50;99.90;;;;;;5048549;28;20036;-76
2023/01/22 12:08:18;;;;;;;16.00;8.45;;;2.50;99.90;;;;;;5047635;28;20045;-76
2023/01/22 12:10:55;;;;;;;15.50;9.15;;;2.50;99.90;;;;;;5043960;28;20041;-76
2023/01/22 12:13:48;;;;;;;18.20;8.50;;;2.60;99.90;;;;;;5047856;28;20081;-77
2023/01/22 12:16:32;;;;;;;15.02;9.20;;;2.60;99.90;;;;;;5056852;28;20516;-77
2023/01/22 12:19:03;;;;;;;17.33;9.27;;;2.60;99.90;;;;;;5062007;28;20036;-76
2023/01/22 12:22:00;;;;;;;13.27;9.15;;;2.60;99.90;;;;;;5044372;28;20468;-76
2023/01/22 12:24:50;;;;;;;16.63;8.63;;;2.60;99.90;;;;;;5050486;28;20451;-76
2023/01/22 12:27:27;;;;;;;15.32;8.60;;;2.60;99.90;;;;;;5045276;28;20507;-76
2023/01/22 12:30:22;;;;;;;11.85;8.35;;;2.60;99.90;;;;;;5052103;28;20045;-77
2023/01/22 12:32:58;;;;;;;20.63;8.88;;;2.60;99.90;;;;;;5067282;28;20479;-76
2023/01/22 12:35:27;;;;;;;15.30;8.43;;;2.60;99.90;;;;;;5030354;28;20123;-76
2023/01/22 12:38:14;;;;;;;13.38;8.82;;;2.70;99.90;;;;;;5049984;28;20102;-73
2023/01/22 12:41:06;;;;;;;12.73;8.18;;;2.80;99.90;;;;;;5053393;28;20040;-74
2023/01/22 12:44:01;;;;;;;15.43;9.00;;;2.80;99.90;;;;;;5046770;28;20049;-74
2023/01/22 12:46:48;;;;;;;14.43;8.70;;;2.80;99.90;;;;;;5042452;28;20059;-75
2023/01/22 12:49:15;;;;;;;14.85;9.30;;;2.80;99.90;;;;;;5039205;28;20132;-76
2023/01/22 12:51:49;;;;;;;14.27;8.65;;;2.80;99.90;;;;;;5054522;28;20084;-76
2023/01/22 12:54:31;;;;;;;12.57;8.30;;;2.80;99.90;;;;;;5046578;28;20361;-77
2023/01/22 12:57:21;;;;;;;15.38;8.32;;;2.80;99.90;;;;;;5045365;28;20500;-75
2023/01/22 12:59:53;;;;;;;15.27;9.10;;;2.80;99.90;;;;;;5040147;28;20033;-76
2023/01/22 13:02:25;;;;;;;14.65;9.00;;;2.70;99.90;;;;;;5061016;28;20033;-76
2023/01/22 13:04:52;;;;;;;13.20;8.17;;;2.70;99.90;;;;;;5046380;28;20087;-75